sensor_id;sensor_type;location;lat;lon;timestamp;temperature;humidity
21801;DHT22;11062;51.164;16.924;2022-10-31T00:01:38;33.20;34.90
21801;DHT22;11062;51.164;16.924;2022-10-31T00:04:07;33.20;35.00
21801;DHT22;11062;51.164;16.924;2022-10-31T00:06:36;33.20;35.00
21801;DHT22;11062;51.164;16.924;2022-10-31T00:09:05;33.20;35.10
21801;DHT22;11062;51.164;16.924;2022-10-31T00:11:33;33.10;35.20
21801;DHT22;11062;51.164;16.924;2022-10-31T00:14:02;33.10;35.20
21801;DHT22;11062;51.164;16.924;2022-10-31T00:16:29;33.10;35.30
21801;DHT22;11062;51.164;16.924;2022-10-31T00:19:00;33.10;35.20
21801;DHT22;11062;51.164;16.924;2022-10-31T00:21:32;33.00;35.10
21801;DHT22;11062;51.164;16.924;2022-10-31T00:23:59;33.00;35.10
21801;DHT22;11062;51.164;16.924;2022-10-31T00:26:29;33.00;35.30
21801;DHT22;11062;51.164;16.924;2022-10-31T00:57:14;32.90;35.00
21801;DHT22;11062;51.164;16.924;2022-10-31T01:01:10;32.90;35.50
21801;DHT22;11062;51.164;16.924;2022-10-31T01:04:22;32.90;35.50
21801;DHT22;11062;51.164;16.924;2022-10-31T01:06:49;32.80;35.30
21801;DHT22;11062;51.164;16.924;2022-10-31T01:09:15;32.80;34.80
21801;DHT22;11062;51.164;16.924;2022-10-31T01:11:42;32.80;35.20
21801;DHT22;11062;51.164;16.924;2022-10-31T01:14:13;32.70;35.10
21801;DHT22;11062;51.164;16.924;2022-10-31T01:16:42;32.70;35.10
21801;DHT22;11062;51.164;16.924;2022-10-31T01:19:08;32.70;35.40
21801;DHT22;11062;51.164;16.924;2022-10-31T01:21:34;32.60;35.20
21801;DHT22;11062;51.164;16.924;2022-10-31T01:24:00;32.60;35.00
21801;DHT22;11062;51.164;16.924;2022-10-31T01:26:38;32.60;34.80
21801;DHT22;11062;51.164;16.924;2022-10-31T01:29:07;32.70;34.60
21801;DHT22;11062;51.164;16.924;2022-10-31T01:31:36;32.60;34.40
21801;DHT22;11062;51.164;16.924;2022-10-31T01:34:13;32.70;34.50
21801;DHT22;11062;51.164;16.924;2022-10-31T01:36:46;32.70;34.40
21801;DHT22;11062;51.164;16.924;2022-10-31T01:39:17;32.60;34.50
21801;DHT22;11062;51.164;16.924;2022-10-31T01:41:49;32.60;34.60
21801;DHT22;11062;51.164;16.924;2022-10-31T01:47:07;32.60;34.90
21801;DHT22;11062;51.164;16.924;2022-10-31T01:49:58;32.60;35.20
21801;DHT22;11062;51.164;16.924;2022-10-31T01:52:46;32.50;34.80
21801;DHT22;11062;51.164;16.924;2022-10-31T01:55:30;32.60;35.00
21801;DHT22;11062;51.164;16.924;2022-10-31T01:58:22;32.50;34.90
21801;DHT22;11062;51.164;16.924;2022-10-31T02:01:01;32.50;34.80
21801;DHT22;11062;51.164;16.924;2022-10-31T02:03:28;32.50;34.80
21801;DHT22;11062;51.164;16.924;2022-10-31T02:05:58;32.50;34.80
21801;DHT22;11062;51.164;16.924;2022-10-31T02:08:33;32.50;35.00
21801;DHT22;11062;51.164;16.924;2022-10-31T02:11:01;32.50;34.80
21801;DHT22;11062;51.164;16.924;2022-10-31T02:13:29;32.50;34.50
21801;DHT22;11062;51.164;16.924;2022-10-31T02:15:58;32.40;34.30
21801;DHT22;11062;51.164;16.924;2022-10-31T02:18:28;32.40;34.20
21801;DHT22;11062;51.164;16.924;2022-10-31T02:23:45;32.40;34.40
21801;DHT22;11062;51.164;16.924;2022-10-31T02:29:34;32.40;34.40
21801;DHT22;11062;51.164;16.924;2022-10-31T02:34:58;32.40;34.30
21801;DHT22;11062;51.164;16.924;2022-10-31T02:41:32;32.40;34.20
21801;DHT22;11062;51.164;16.924;2022-10-31T02:47:36;32.30;34.20
21801;DHT22;11062;51.164;16.924;2022-10-31T02:50:26;32.30;34.60
21801;DHT22;11062;51.164;16.924;2022-10-31T02:52:54;32.30;34.80
21801;DHT22;11062;51.164;16.924;2022-10-31T02:58:10;32.20;34.20
21801;DHT22;11062;51.164;16.924;2022-10-31T03:06:20;32.20;34.40
21801;DHT22;11062;51.164;16.924;2022-10-31T03:09:07;32.20;34.60
21801;DHT22;11062;51.164;16.924;2022-10-31T03:17:05;32.20;34.70
21801;DHT22;11062;51.164;16.924;2022-10-31T03:19:37;32.10;34.90
21801;DHT22;11062;51.164;16.924;2022-10-31T03:22:10;32.00;34.60
21801;DHT22;11062;51.164;16.924;2022-10-31T03:24:45;32.00;34.60
21801;DHT22;11062;51.164;16.924;2022-10-31T03:31:05;32.10;34.60
21801;DHT22;11062;51.164;16.924;2022-10-31T04:00:52;32.00;33.90
21801;DHT22;11062;51.164;16.924;2022-10-31T04:03:24;32.00;33.80
21801;DHT22;11062;51.164;16.924;2022-10-31T04:57:07;31.80;34.00
21801;DHT22;11062;51.164;16.924;2022-10-31T04:59:33;31.70;34.00
21801;DHT22;11062;51.164;16.924;2022-10-31T05:01:59;31.70;33.80
21801;DHT22;11062;51.164;16.924;2022-10-31T05:04:25;31.70;33.60
21801;DHT22;11062;51.164;16.924;2022-10-31T05:06:51;31.70;33.70
21801;DHT22;11062;51.164;16.924;2022-10-31T05:09:20;31.60;33.40
21801;DHT22;11062;51.164;16.924;2022-10-31T06:11:13;31.40;33.90
21801;DHT22;11062;51.164;16.924;2022-10-31T06:13:45;31.50;34.10
21801;DHT22;11062;51.164;16.924;2022-10-31T06:43:34;31.70;34.70
21801;DHT22;11062;51.164;16.924;2022-10-31T06:46:48;31.80;35.10
21801;DHT22;11062;51.164;16.924;2022-10-31T06:49:46;31.80;35.40
21801;DHT22;11062;51.164;16.924;2022-10-31T06:56:58;32.00;35.90
21801;DHT22;11062;51.164;16.924;2022-10-31T07:00:10;32.10;36.00
21801;DHT22;11062;51.164;16.924;2022-10-31T07:59:59;33.90;38.20
21801;DHT22;11062;51.164;16.924;2022-10-31T08:55:17;36.50;39.40
21801;DHT22;11062;51.164;16.924;2022-10-31T08:58:12;36.50;38.10
21801;DHT22;11062;51.164;16.924;2022-10-31T09:04:37;36.30;37.00
21801;DHT22;11062;51.164;16.924;2022-10-31T09:07:17;36.30;37.10
21801;DHT22;11062;51.164;16.924;2022-10-31T09:59:49;35.70;36.80
21801;DHT22;11062;51.164;16.924;2022-10-31T10:47:43;38.40;35.30
21801;DHT22;11062;51.164;16.924;2022-10-31T10:50:31;38.30;35.30
21801;DHT22;11062;51.164;16.924;2022-10-31T10:56:14;38.50;35.20
21801;DHT22;11062;51.164;16.924;2022-10-31T10:58:43;38.90;35.00
21801;DHT22;11062;51.164;16.924;2022-10-31T11:01:17;39.00;35.60
21801;DHT22;11062;51.164;16.924;2022-10-31T11:03:45;39.20;34.90
21801;DHT22;11062;51.164;16.924;2022-10-31T11:06:44;39.40;34.60
21801;DHT22;11062;51.164;16.924;2022-10-31T11:09:10;39.50;34.40
21801;DHT22;11062;51.164;16.924;2022-10-31T11:11:38;40.00;34.10
21801;DHT22;11062;51.164;16.924;2022-10-31T11:14:11;40.50;34.20
21801;DHT22;11062;51.164;16.924;2022-10-31T11:16:40;40.50;33.10
21801;DHT22;11062;51.164;16.924;2022-10-31T11:21:40;40.90;32.90
21801;DHT22;11062;51.164;16.924;2022-10-31T11:26:36;41.40;32.90
21801;DHT22;11062;51.164;16.924;2022-10-31T11:29:04;41.50;32.10
21801;DHT22;11062;51.164;16.924;2022-10-31T11:31:37;41.40;32.10
21801;DHT22;11062;51.164;16.924;2022-10-31T11:34:05;41.60;32.60
21801;DHT22;11062;51.164;16.924;2022-10-31T11:36:42;41.90;33.00
21801;DHT22;11062;51.164;16.924;2022-10-31T11:39:18;42.00;32.10
21801;DHT22;11062;51.164;16.924;2022-10-31T11:41:49;42.10;31.80
21801;DHT22;11062;51.164;16.924;2022-10-31T11:44:27;41.80;31.60
21801;DHT22;11062;51.164;16.924;2022-10-31T11:47:09;42.00;32.10
21801;DHT22;11062;51.164;16.924;2022-10-31T11:49:46;42.00;31.60
21801;DHT22;11062;51.164;16.924;2022-10-31T11:52:28;42.00;31.60
21801;DHT22;11062;51.164;16.924;2022-10-31T11:57:55;42.50;31.60
21801;DHT22;11062;51.164;16.924;2022-10-31T12:00:31;42.50;31.50
21801;DHT22;11062;51.164;16.924;2022-10-31T12:05:41;42.70;31.70
21801;DHT22;11062;51.164;16.924;2022-10-31T12:08:12;43.00;31.00
21801;DHT22;11062;51.164;16.924;2022-10-31T12:19:04;43.40;30.70
21801;DHT22;11062;51.164;16.924;2022-10-31T12:27:46;43.30;30.50
21801;DHT22;11062;51.164;16.924;2022-10-31T12:30:27;43.40;30.90
21801;DHT22;11062;51.164;16.924;2022-10-31T12:36:25;43.00;30.60
21801;DHT22;11062;51.164;16.924;2022-10-31T12:42:24;43.20;31.20
21801;DHT22;11062;51.164;16.924;2022-10-31T12:53:35;43.50;30.40
21801;DHT22;11062;51.164;16.924;2022-10-31T12:56:18;43.60;30.40
21801;DHT22;11062;51.164;16.924;2022-10-31T12:58:52;43.70;30.20
21801;DHT22;11062;51.164;16.924;2022-10-31T13:01:46;43.70;30.00
21801;DHT22;11062;51.164;16.924;2022-10-31T13:04:22;43.70;30.00
21801;DHT22;11062;51.164;16.924;2022-10-31T13:06:55;43.80;30.00
21801;DHT22;11062;51.164;16.924;2022-10-31T13:09:37;43.90;30.00
21801;DHT22;11062;51.164;16.924;2022-10-31T13:12:08;44.10;30.30
21801;DHT22;11062;51.164;16.924;2022-10-31T13:14:48;44.10;29.80
21801;DHT22;11062;51.164;16.924;2022-10-31T13:17:37;44.30;29.70
21801;DHT22;11062;51.164;16.924;2022-10-31T13:20:16;44.60;29.80
21801;DHT22;11062;51.164;16.924;2022-10-31T13:22:46;44.30;29.50
21801;DHT22;11062;51.164;16.924;2022-10-31T13:25:25;44.60;29.40
21801;DHT22;11062;51.164;16.924;2022-10-31T13:28:03;44.60;29.30
21801;DHT22;11062;51.164;16.924;2022-10-31T13:30:37;44.80;29.70
21801;DHT22;11062;51.164;16.924;2022-10-31T13:33:07;45.00;29.30
21801;DHT22;11062;51.164;16.924;2022-10-31T13:36:30;44.90;29.30
21801;DHT22;11062;51.164;16.924;2022-10-31T13:38:59;45.00;29.50
21801;DHT22;11062;51.164;16.924;2022-10-31T13:41:49;45.00;29.20
21801;DHT22;11062;51.164;16.924;2022-10-31T13:44:24;45.00;29.20
21801;DHT22;11062;51.164;16.924;2022-10-31T13:46:56;44.90;29.40
21801;DHT22;11062;51.164;16.924;2022-10-31T13:54:43;44.90;29.30
21801;DHT22;11062;51.164;16.924;2022-10-31T13:57:28;45.00;29.50
21801;DHT22;11062;51.164;16.924;2022-10-31T13:59:58;45.10;29.40
21801;DHT22;11062;51.164;16.924;2022-10-31T14:02:30;45.10;29.50
21801;DHT22;11062;51.164;16.924;2022-10-31T14:05:05;45.20;29.60
21801;DHT22;11062;51.164;16.924;2022-10-31T14:07:43;45.20;29.70
21801;DHT22;11062;51.164;16.924;2022-10-31T14:15:31;45.00;29.40
21801;DHT22;11062;51.164;16.924;2022-10-31T14:18:02;44.90;29.60
21801;DHT22;11062;51.164;16.924;2022-10-31T14:20:38;44.90;29.70
21801;DHT22;11062;51.164;16.924;2022-10-31T14:23:34;44.80;29.90
21801;DHT22;11062;51.164;16.924;2022-10-31T14:29:02;44.60;29.80
21801;DHT22;11062;51.164;16.924;2022-10-31T14:31:53;44.40;29.80
21801;DHT22;11062;51.164;16.924;2022-10-31T14:34:40;44.20;30.00
21801;DHT22;11062;51.164;16.924;2022-10-31T14:40:02;44.00;30.40
21801;DHT22;11062;51.164;16.924;2022-10-31T14:45:52;43.80;30.60
21801;DHT22;11062;51.164;16.924;2022-10-31T14:48:38;43.60;31.00
21801;DHT22;11062;51.164;16.924;2022-10-31T14:51:16;43.50;31.40
21801;DHT22;11062;51.164;16.924;2022-10-31T14:53:51;43.40;31.70
21801;DHT22;11062;51.164;16.924;2022-10-31T14:56:26;43.30;32.00
21801;DHT22;11062;51.164;16.924;2022-10-31T14:59:01;43.00;31.90
21801;DHT22;11062;51.164;16.924;2022-10-31T15:01:32;42.90;32.10
21801;DHT22;11062;51.164;16.924;2022-10-31T15:04:23;42.70;32.20
21801;DHT22;11062;51.164;16.924;2022-10-31T15:06:57;42.50;32.50
21801;DHT22;11062;51.164;16.924;2022-10-31T15:09:34;42.40;32.70
21801;DHT22;11062;51.164;16.924;2022-10-31T15:12:16;42.00;32.80
21801;DHT22;11062;51.164;16.924;2022-10-31T15:14:45;41.90;33.10
21801;DHT22;11062;51.164;16.924;2022-10-31T15:17:11;41.80;33.10
21801;DHT22;11062;51.164;16.924;2022-10-31T15:19:38;41.70;33.40
21801;DHT22;11062;51.164;16.924;2022-10-31T15:22:04;41.60;33.40
21801;DHT22;11062;51.164;16.924;2022-10-31T15:24:35;41.30;33.60
21801;DHT22;11062;51.164;16.924;2022-10-31T15:27:02;41.20;33.60
21801;DHT22;11062;51.164;16.924;2022-10-31T15:29:50;41.00;33.80
21801;DHT22;11062;51.164;16.924;2022-10-31T15:32:29;40.90;34.20
21801;DHT22;11062;51.164;16.924;2022-10-31T15:34:56;40.70;34.50
21801;DHT22;11062;51.164;16.924;2022-10-31T15:37:25;40.40;34.70
21801;DHT22;11062;51.164;16.924;2022-10-31T15:39:52;40.30;34.90
21801;DHT22;11062;51.164;16.924;2022-10-31T15:44:59;39.90;34.70
21801;DHT22;11062;51.164;16.924;2022-10-31T15:47:26;39.80;34.80
21801;DHT22;11062;51.164;16.924;2022-10-31T15:49:57;39.60;35.20
21801;DHT22;11062;51.164;16.924;2022-10-31T15:52:47;39.40;35.30
21801;DHT22;11062;51.164;16.924;2022-10-31T15:55:23;39.30;35.30
21801;DHT22;11062;51.164;16.924;2022-10-31T15:58:13;39.20;35.80
21801;DHT22;11062;51.164;16.924;2022-10-31T16:00:43;39.00;35.80
21801;DHT22;11062;51.164;16.924;2022-10-31T16:05:47;38.70;36.20
21801;DHT22;11062;51.164;16.924;2022-10-31T16:11:00;38.60;35.90
21801;DHT22;11062;51.164;16.924;2022-10-31T16:13:33;38.40;36.10
21801;DHT22;11062;51.164;16.924;2022-10-31T16:16:03;38.40;36.10
21801;DHT22;11062;51.164;16.924;2022-10-31T16:18:36;38.20;35.80
21801;DHT22;11062;51.164;16.924;2022-10-31T16:21:10;38.20;36.10
21801;DHT22;11062;51.164;16.924;2022-10-31T16:23:44;38.10;36.20
21801;DHT22;11062;51.164;16.924;2022-10-31T16:28:54;37.90;36.40
21801;DHT22;11062;51.164;16.924;2022-10-31T16:31:36;37.90;36.00
21801;DHT22;11062;51.164;16.924;2022-10-31T16:34:19;37.70;36.20
21801;DHT22;11062;51.164;16.924;2022-10-31T16:36:46;37.70;36.30
21801;DHT22;11062;51.164;16.924;2022-10-31T16:39:12;37.50;36.90
21801;DHT22;11062;51.164;16.924;2022-10-31T16:41:41;37.40;36.30
21801;DHT22;11062;51.164;16.924;2022-10-31T16:44:27;37.30;36.10
21801;DHT22;11062;51.164;16.924;2022-10-31T16:47:16;37.30;36.20
21801;DHT22;11062;51.164;16.924;2022-10-31T16:49:49;37.10;36.70
21801;DHT22;11062;51.164;16.924;2022-10-31T16:52:16;37.00;36.80
